sensor_id;sensor_type;location;lat;lon;timestamp;P1;durP1;ratioP1;P2;durP2;ratioP2
13335;SDS011;6737;51.480;11.962;2022-11-21T00:00:51;24.53;;;13.87;;
13335;SDS011;6737;51.480;11.962;2022-11-21T00:03:18;26.10;;;13.60;;
13335;SDS011;6737;51.480;11.962;2022-11-21T00:05:45;28.13;;;15.03;;
13335;SDS011;6737;51.480;11.962;2022-11-21T00:08:14;25.73;;;13.73;;
13335;SDS011;6737;51.480;11.962;2022-11-21T00:10:41;26.53;;;15.07;;
13335;SDS011;6737;51.480;11.962;2022-11-21T00:13:10;25.80;;;14.87;;
13335;SDS011;6737;51.480;11.962;2022-11-21T00:15:41;25.70;;;14.50;;
13335;SDS011;6737;51.480;11.962;2022-11-21T00:18:08;29.43;;;15.40;;
13335;SDS011;6737;51.480;11.962;2022-11-21T00:20:36;29.17;;;15.80;;
13335;SDS011;6737;51.480;11.962;2022-11-21T00:23:02;32.60;;;15.90;;
13335;SDS011;6737;51.480;11.962;2022-11-21T00:25:27;32.07;;;16.53;;
13335;SDS011;6737;51.480;11.962;2022-11-21T00:27:53;30.17;;;16.03;;
13335;SDS011;6737;51.480;11.962;2022-11-21T00:30:19;31.53;;;17.03;;
13335;SDS011;6737;51.480;11.962;2022-11-21T00:32:45;34.73;;;16.23;;
13335;SDS011;6737;51.480;11.962;2022-11-21T00:35:11;31.37;;;16.17;;
13335;SDS011;6737;51.480;11.962;2022-11-21T00:37:37;28.83;;;15.63;;
13335;SDS011;6737;51.480;11.962;2022-11-21T00:40:03;28.70;;;15.30;;
13335;SDS011;6737;51.480;11.962;2022-11-21T00:42:29;34.70;;;15.93;;
13335;SDS011;6737;51.480;11.962;2022-11-21T00:44:55;26.63;;;15.03;;
13335;SDS011;6737;51.480;11.962;2022-11-21T00:47:21;27.30;;;15.40;;
13335;SDS011;6737;51.480;11.962;2022-11-21T00:49:47;28.17;;;15.77;;
13335;SDS011;6737;51.480;11.962;2022-11-21T00:52:13;29.87;;;16.00;;
13335;SDS011;6737;51.480;11.962;2022-11-21T00:54:39;32.57;;;16.17;;
13335;SDS011;6737;51.480;11.962;2022-11-21T00:57:05;30.13;;;16.13;;
13335;SDS011;6737;51.480;11.962;2022-11-21T00:59:31;29.80;;;15.73;;
13335;SDS011;6737;51.480;11.962;2022-11-21T01:01:57;30.73;;;16.23;;
13335;SDS011;6737;51.480;11.962;2022-11-21T01:04:22;29.67;;;16.00;;
13335;SDS011;6737;51.480;11.962;2022-11-21T01:06:48;32.13;;;17.00;;
13335;SDS011;6737;51.480;11.962;2022-11-21T01:09:14;30.80;;;16.90;;
13335;SDS011;6737;51.480;11.962;2022-11-21T01:11:40;29.67;;;16.27;;
13335;SDS011;6737;51.480;11.962;2022-11-21T01:14:05;28.70;;;16.63;;
13335;SDS011;6737;51.480;11.962;2022-11-21T01:16:31;29.00;;;17.13;;
13335;SDS011;6737;51.480;11.962;2022-11-21T01:18:57;28.73;;;16.13;;
13335;SDS011;6737;51.480;11.962;2022-11-21T01:21:24;32.37;;;17.20;;
13335;SDS011;6737;51.480;11.962;2022-11-21T01:23:52;31.77;;;16.43;;
13335;SDS011;6737;51.480;11.962;2022-11-21T01:26:19;32.00;;;17.77;;
13335;SDS011;6737;51.480;11.962;2022-11-21T01:28:47;32.60;;;17.93;;
13335;SDS011;6737;51.480;11.962;2022-11-21T01:31:14;31.83;;;17.03;;
13335;SDS011;6737;51.480;11.962;2022-11-21T01:33:43;29.57;;;16.27;;
13335;SDS011;6737;51.480;11.962;2022-11-21T01:36:10;31.90;;;17.67;;
13335;SDS011;6737;51.480;11.962;2022-11-21T01:38:45;32.00;;;16.27;;
13335;SDS011;6737;51.480;11.962;2022-11-21T01:41:14;31.83;;;16.50;;
13335;SDS011;6737;51.480;11.962;2022-11-21T01:43:42;34.07;;;17.43;;
13335;SDS011;6737;51.480;11.962;2022-11-21T01:48:36;29.97;;;16.03;;
13335;SDS011;6737;51.480;11.962;2022-11-21T01:51:25;32.97;;;16.53;;
13335;SDS011;6737;51.480;11.962;2022-11-21T01:54:16;33.23;;;17.27;;
13335;SDS011;6737;51.480;11.962;2022-11-21T01:59:22;29.37;;;16.47;;
13335;SDS011;6737;51.480;11.962;2022-11-21T02:01:59;31.40;;;16.57;;
13335;SDS011;6737;51.480;11.962;2022-11-21T02:04:29;30.13;;;15.43;;
13335;SDS011;6737;51.480;11.962;2022-11-21T02:06:57;30.67;;;16.00;;
13335;SDS011;6737;51.480;11.962;2022-11-21T02:09:23;30.17;;;16.10;;
13335;SDS011;6737;51.480;11.962;2022-11-21T02:11:53;26.93;;;15.57;;
13335;SDS011;6737;51.480;11.962;2022-11-21T02:14:23;27.83;;;15.70;;
13335;SDS011;6737;51.480;11.962;2022-11-21T02:16:50;28.57;;;15.53;;
13335;SDS011;6737;51.480;11.962;2022-11-21T02:19:40;28.50;;;15.60;;
13335;SDS011;6737;51.480;11.962;2022-11-21T02:22:45;28.83;;;15.80;;
13335;SDS011;6737;51.480;11.962;2022-11-21T02:25:14;29.13;;;15.73;;
13335;SDS011;6737;51.480;11.962;2022-11-21T02:27:48;30.30;;;15.53;;
13335;SDS011;6737;51.480;11.962;2022-11-21T02:30:16;27.57;;;15.00;;
13335;SDS011;6737;51.480;11.962;2022-11-21T02:32:44;26.63;;;15.67;;
13335;SDS011;6737;51.480;11.962;2022-11-21T02:35:16;29.83;;;15.97;;
13335;SDS011;6737;51.480;11.962;2022-11-21T02:37:46;28.40;;;15.60;;
13335;SDS011;6737;51.480;11.962;2022-11-21T02:40:20;32.43;;;16.60;;
13335;SDS011;6737;51.480;11.962;2022-11-21T02:45:48;32.07;;;16.60;;
13335;SDS011;6737;51.480;11.962;2022-11-21T02:48:14;31.77;;;16.93;;
13335;SDS011;6737;51.480;11.962;2022-11-21T02:50:41;31.60;;;16.43;;
13335;SDS011;6737;51.480;11.962;2022-11-21T02:53:10;32.00;;;17.20;;
13335;SDS011;6737;51.480;11.962;2022-11-21T02:55:37;33.77;;;16.30;;
13335;SDS011;6737;51.480;11.962;2022-11-21T02:58:03;32.23;;;17.37;;
13335;SDS011;6737;51.480;11.962;2022-11-21T03:00:30;33.73;;;17.67;;
13335;SDS011;6737;51.480;11.962;2022-11-21T03:02:56;34.00;;;18.20;;
13335;SDS011;6737;51.480;11.962;2022-11-21T03:05:22;31.83;;;17.00;;
13335;SDS011;6737;51.480;11.962;2022-11-21T03:07:48;32.93;;;17.17;;
13335;SDS011;6737;51.480;11.962;2022-11-21T03:10:14;31.93;;;16.70;;
13335;SDS011;6737;51.480;11.962;2022-11-21T03:12:41;33.20;;;17.07;;
13335;SDS011;6737;51.480;11.962;2022-11-21T03:15:08;32.73;;;17.63;;
13335;SDS011;6737;51.480;11.962;2022-11-21T03:17:36;30.13;;;16.10;;
13335;SDS011;6737;51.480;11.962;2022-11-21T03:20:02;33.07;;;16.87;;
13335;SDS011;6737;51.480;11.962;2022-11-21T03:22:29;33.07;;;16.67;;
13335;SDS011;6737;51.480;11.962;2022-11-21T03:24:54;29.70;;;16.50;;
13335;SDS011;6737;51.480;11.962;2022-11-21T03:27:20;31.00;;;16.90;;
13335;SDS011;6737;51.480;11.962;2022-11-21T03:29:46;33.07;;;16.90;;
13335;SDS011;6737;51.480;11.962;2022-11-21T03:32:12;31.17;;;16.67;;
13335;SDS011;6737;51.480;11.962;2022-11-21T03:34:37;32.93;;;17.10;;
13335;SDS011;6737;51.480;11.962;2022-11-21T03:37:03;32.00;;;17.10;;
13335;SDS011;6737;51.480;11.962;2022-11-21T03:39:29;33.83;;;16.77;;
13335;SDS011;6737;51.480;11.962;2022-11-21T03:41:55;30.27;;;15.83;;
13335;SDS011;6737;51.480;11.962;2022-11-21T03:44:21;32.97;;;16.07;;
13335;SDS011;6737;51.480;11.962;2022-11-21T03:46:47;30.70;;;15.60;;
13335;SDS011;6737;51.480;11.962;2022-11-21T03:49:13;33.07;;;16.70;;
13335;SDS011;6737;51.480;11.962;2022-11-21T03:51:41;30.37;;;16.03;;
13335;SDS011;6737;51.480;11.962;2022-11-21T03:54:08;32.10;;;16.33;;
13335;SDS011;6737;51.480;11.962;2022-11-21T03:56:34;30.43;;;15.80;;
13335;SDS011;6737;51.480;11.962;2022-11-21T03:59:01;29.67;;;15.50;;
13335;SDS011;6737;51.480;11.962;2022-11-21T04:01:27;33.33;;;15.73;;
13335;SDS011;6737;51.480;11.962;2022-11-21T04:03:53;32.30;;;15.67;;
13335;SDS011;6737;51.480;11.962;2022-11-21T04:06:20;32.07;;;16.23;;
13335;SDS011;6737;51.480;11.962;2022-11-21T04:08:47;29.77;;;15.43;;
13335;SDS011;6737;51.480;11.962;2022-11-21T04:11:14;30.13;;;15.63;;
13335;SDS011;6737;51.480;11.962;2022-11-21T04:13:40;30.73;;;15.37;;
13335;SDS011;6737;51.480;11.962;2022-11-21T04:16:06;31.00;;;14.90;;
13335;SDS011;6737;51.480;11.962;2022-11-21T04:18:35;26.97;;;14.67;;
13335;SDS011;6737;51.480;11.962;2022-11-21T04:21:02;28.07;;;14.53;;
13335;SDS011;6737;51.480;11.962;2022-11-21T04:23:30;29.67;;;14.80;;
13335;SDS011;6737;51.480;11.962;2022-11-21T04:25:56;29.40;;;14.87;;
13335;SDS011;6737;51.480;11.962;2022-11-21T04:28:22;25.97;;;14.53;;
13335;SDS011;6737;51.480;11.962;2022-11-21T04:30:48;29.50;;;14.87;;
13335;SDS011;6737;51.480;11.962;2022-11-21T04:33:14;26.17;;;14.93;;
13335;SDS011;6737;51.480;11.962;2022-11-21T04:35:41;29.57;;;14.33;;
13335;SDS011;6737;51.480;11.962;2022-11-21T04:38:08;28.13;;;15.70;;
13335;SDS011;6737;51.480;11.962;2022-11-21T04:40:34;30.00;;;15.10;;
13335;SDS011;6737;51.480;11.962;2022-11-21T04:43:00;29.47;;;16.10;;
13335;SDS011;6737;51.480;11.962;2022-11-21T04:45:26;33.70;;;17.43;;
13335;SDS011;6737;51.480;11.962;2022-11-21T04:47:52;32.93;;;17.07;;
13335;SDS011;6737;51.480;11.962;2022-11-21T04:50:18;31.77;;;17.13;;
13335;SDS011;6737;51.480;11.962;2022-11-21T04:52:51;30.70;;;16.97;;
13335;SDS011;6737;51.480;11.962;2022-11-21T04:55:19;34.03;;;17.03;;
13335;SDS011;6737;51.480;11.962;2022-11-21T04:57:46;34.63;;;17.40;;
13335;SDS011;6737;51.480;11.962;2022-11-21T05:00:15;37.23;;;18.03;;
13335;SDS011;6737;51.480;11.962;2022-11-21T05:02:42;37.93;;;18.90;;
13335;SDS011;6737;51.480;11.962;2022-11-21T05:05:09;41.20;;;19.70;;
13335;SDS011;6737;51.480;11.962;2022-11-21T05:07:35;43.67;;;20.33;;
13335;SDS011;6737;51.480;11.962;2022-11-21T05:10:01;46.83;;;21.23;;
13335;SDS011;6737;51.480;11.962;2022-11-21T05:12:27;46.90;;;20.33;;
13335;SDS011;6737;51.480;11.962;2022-11-21T05:15:11;44.53;;;21.10;;
13335;SDS011;6737;51.480;11.962;2022-11-21T05:17:37;42.70;;;19.50;;
13335;SDS011;6737;51.480;11.962;2022-11-21T05:20:03;48.33;;;20.20;;
13335;SDS011;6737;51.480;11.962;2022-11-21T05:22:29;44.97;;;19.60;;
13335;SDS011;6737;51.480;11.962;2022-11-21T05:24:55;42.43;;;20.73;;
13335;SDS011;6737;51.480;11.962;2022-11-21T05:27:21;42.77;;;20.10;;
13335;SDS011;6737;51.480;11.962;2022-11-21T05:29:47;46.87;;;20.47;;
13335;SDS011;6737;51.480;11.962;2022-11-21T05:32:12;40.73;;;18.73;;
13335;SDS011;6737;51.480;11.962;2022-11-21T05:34:38;39.80;;;19.20;;
13335;SDS011;6737;51.480;11.962;2022-11-21T05:37:04;38.90;;;18.87;;
13335;SDS011;6737;51.480;11.962;2022-11-21T05:39:30;35.63;;;18.17;;
13335;SDS011;6737;51.480;11.962;2022-11-21T05:41:55;36.77;;;19.43;;
13335;SDS011;6737;51.480;11.962;2022-11-21T05:44:21;36.27;;;18.10;;
13335;SDS011;6737;51.480;11.962;2022-11-21T05:46:47;33.10;;;17.10;;
13335;SDS011;6737;51.480;11.962;2022-11-21T05:49:13;35.53;;;18.07;;
13335;SDS011;6737;51.480;11.962;2022-11-21T05:51:39;35.30;;;18.07;;
13335;SDS011;6737;51.480;11.962;2022-11-21T05:54:04;38.33;;;17.37;;
13335;SDS011;6737;51.480;11.962;2022-11-21T05:56:30;34.03;;;17.50;;
13335;SDS011;6737;51.480;11.962;2022-11-21T05:58:56;37.77;;;17.73;;
13335;SDS011;6737;51.480;11.962;2022-11-21T06:01:23;38.20;;;17.77;;
13335;SDS011;6737;51.480;11.962;2022-11-21T06:04:08;33.93;;;17.57;;
13335;SDS011;6737;51.480;11.962;2022-11-21T06:06:35;32.43;;;16.50;;
13335;SDS011;6737;51.480;11.962;2022-11-21T06:09:01;31.57;;;15.43;;
13335;SDS011;6737;51.480;11.962;2022-11-21T06:11:27;30.73;;;17.20;;
13335;SDS011;6737;51.480;11.962;2022-11-21T06:13:53;35.53;;;16.30;;
13335;SDS011;6737;51.480;11.962;2022-11-21T06:16:19;35.47;;;16.10;;
13335;SDS011;6737;51.480;11.962;2022-11-21T06:18:46;30.10;;;15.13;;
13335;SDS011;6737;51.480;11.962;2022-11-21T06:21:17;29.07;;;15.03;;
13335;SDS011;6737;51.480;11.962;2022-11-21T06:23:44;28.23;;;14.90;;
13335;SDS011;6737;51.480;11.962;2022-11-21T06:26:12;27.63;;;15.13;;
13335;SDS011;6737;51.480;11.962;2022-11-21T06:28:39;33.57;;;14.90;;
13335;SDS011;6737;51.480;11.962;2022-11-21T06:31:07;35.60;;;16.57;;
13335;SDS011;6737;51.480;11.962;2022-11-21T06:33:37;32.73;;;16.23;;
13335;SDS011;6737;51.480;11.962;2022-11-21T06:36:05;33.13;;;16.03;;
13335;SDS011;6737;51.480;11.962;2022-11-21T06:38:33;35.40;;;17.13;;
13335;SDS011;6737;51.480;11.962;2022-11-21T06:41:03;36.63;;;16.33;;
13335;SDS011;6737;51.480;11.962;2022-11-21T06:43:38;38.50;;;16.23;;
13335;SDS011;6737;51.480;11.962;2022-11-21T06:46:04;36.43;;;16.73;;
13335;SDS011;6737;51.480;11.962;2022-11-21T06:48:30;34.87;;;16.07;;
13335;SDS011;6737;51.480;11.962;2022-11-21T06:50:56;30.30;;;15.30;;
13335;SDS011;6737;51.480;11.962;2022-11-21T06:53:22;32.67;;;16.17;;
13335;SDS011;6737;51.480;11.962;2022-11-21T06:55:48;33.37;;;16.07;;
13335;SDS011;6737;51.480;11.962;2022-11-21T06:58:14;32.43;;;15.53;;
13335;SDS011;6737;51.480;11.962;2022-11-21T07:00:40;30.57;;;15.27;;
13335;SDS011;6737;51.480;11.962;2022-11-21T07:03:05;30.13;;;14.47;;
13335;SDS011;6737;51.480;11.962;2022-11-21T07:05:31;29.17;;;14.87;;
13335;SDS011;6737;51.480;11.962;2022-11-21T07:07:58;32.97;;;15.43;;
13335;SDS011;6737;51.480;11.962;2022-11-21T07:10:24;38.33;;;17.13;;
13335;SDS011;6737;51.480;11.962;2022-11-21T07:12:50;36.93;;;16.33;;
13335;SDS011;6737;51.480;11.962;2022-11-21T07:15:34;39.13;;;17.50;;
13335;SDS011;6737;51.480;11.962;2022-11-21T07:18:00;50.23;;;19.47;;
13335;SDS011;6737;51.480;11.962;2022-11-21T07:20:26;51.33;;;19.23;;
13335;SDS011;6737;51.480;11.962;2022-11-21T07:22:53;53.40;;;20.37;;
13335;SDS011;6737;51.480;11.962;2022-11-21T07:25:19;51.57;;;20.47;;
13335;SDS011;6737;51.480;11.962;2022-11-21T07:27:46;51.73;;;20.07;;
13335;SDS011;6737;51.480;11.962;2022-11-21T07:30:12;43.50;;;17.67;;
13335;SDS011;6737;51.480;11.962;2022-11-21T07:32:38;49.27;;;19.97;;
13335;SDS011;6737;51.480;11.962;2022-11-21T07:35:04;47.43;;;18.87;;
13335;SDS011;6737;51.480;11.962;2022-11-21T07:37:31;42.50;;;19.00;;
13335;SDS011;6737;51.480;11.962;2022-11-21T07:39:56;44.30;;;18.73;;
13335;SDS011;6737;51.480;11.962;2022-11-21T07:42:22;44.53;;;18.50;;
13335;SDS011;6737;51.480;11.962;2022-11-21T07:44:48;45.90;;;19.40;;
13335;SDS011;6737;51.480;11.962;2022-11-21T07:47:13;45.63;;;19.27;;
13335;SDS011;6737;51.480;11.962;2022-11-21T07:49:39;47.50;;;18.10;;
13335;SDS011;6737;51.480;11.962;2022-11-21T07:52:05;43.07;;;18.53;;
13335;SDS011;6737;51.480;11.962;2022-11-21T07:54:31;40.93;;;18.00;;
13335;SDS011;6737;51.480;11.962;2022-11-21T07:56:56;41.50;;;17.50;;
13335;SDS011;6737;51.480;11.962;2022-11-21T07:59:22;39.10;;;18.23;;
13335;SDS011;6737;51.480;11.962;2022-11-21T08:01:49;40.23;;;17.87;;
13335;SDS011;6737;51.480;11.962;2022-11-21T08:04:16;40.40;;;17.70;;
13335;SDS011;6737;51.480;11.962;2022-11-21T08:06:42;43.80;;;17.67;;
13335;SDS011;6737;51.480;11.962;2022-11-21T08:09:08;40.37;;;18.43;;
13335;SDS011;6737;51.480;11.962;2022-11-21T08:11:36;40.53;;;18.27;;
13335;SDS011;6737;51.480;11.962;2022-11-21T08:14:02;39.17;;;17.97;;
13335;SDS011;6737;51.480;11.962;2022-11-21T08:16:28;41.27;;;17.07;;
13335;SDS011;6737;51.480;11.962;2022-11-21T08:18:57;36.10;;;16.43;;
13335;SDS011;6737;51.480;11.962;2022-11-21T08:21:24;42.27;;;18.00;;
13335;SDS011;6737;51.480;11.962;2022-11-21T08:23:50;38.40;;;16.83;;
13335;SDS011;6737;51.480;11.962;2022-11-21T08:26:17;37.00;;;18.03;;
13335;SDS011;6737;51.480;11.962;2022-11-21T08:28:42;41.23;;;17.87;;
13335;SDS011;6737;51.480;11.962;2022-11-21T08:31:09;39.77;;;17.87;;
13335;SDS011;6737;51.480;11.962;2022-11-21T08:33:34;38.63;;;16.83;;
13335;SDS011;6737;51.480;11.962;2022-11-21T08:36:04;39.60;;;17.67;;
13335;SDS011;6737;51.480;11.962;2022-11-21T08:38:31;37.13;;;18.07;;
13335;SDS011;6737;51.480;11.962;2022-11-21T08:40:57;44.30;;;19.37;;
13335;SDS011;6737;51.480;11.962;2022-11-21T08:43:41;45.47;;;20.57;;
13335;SDS011;6737;51.480;11.962;2022-11-21T08:46:07;41.30;;;18.90;;
13335;SDS011;6737;51.480;11.962;2022-11-21T08:48:33;41.93;;;18.70;;
13335;SDS011;6737;51.480;11.962;2022-11-21T08:50:59;45.63;;;19.33;;
13335;SDS011;6737;51.480;11.962;2022-11-21T08:53:25;46.20;;;18.93;;
13335;SDS011;6737;51.480;11.962;2022-11-21T08:55:52;47.77;;;19.43;;
13335;SDS011;6737;51.480;11.962;2022-11-21T08:58:18;38.03;;;18.00;;
13335;SDS011;6737;51.480;11.962;2022-11-21T09:00:44;39.20;;;18.07;;
13335;SDS011;6737;51.480;11.962;2022-11-21T09:03:10;42.63;;;17.50;;
13335;SDS011;6737;51.480;11.962;2022-11-21T09:05:35;35.73;;;17.40;;
13335;SDS011;6737;51.480;11.962;2022-11-21T09:08:01;37.20;;;16.70;;
13335;SDS011;6737;51.480;11.962;2022-11-21T09:10:27;34.57;;;16.00;;
13335;SDS011;6737;51.480;11.962;2022-11-21T09:12:56;35.00;;;16.50;;
13335;SDS011;6737;51.480;11.962;2022-11-21T09:15:23;31.70;;;15.47;;
13335;SDS011;6737;51.480;11.962;2022-11-21T09:18:18;31.40;;;14.80;;
13335;SDS011;6737;51.480;11.962;2022-11-21T09:20:44;32.07;;;15.73;;
13335;SDS011;6737;51.480;11.962;2022-11-21T09:23:11;29.97;;;16.13;;
13335;SDS011;6737;51.480;11.962;2022-11-21T09:25:38;33.60;;;15.07;;
13335;SDS011;6737;51.480;11.962;2022-11-21T09:28:05;28.70;;;15.80;;
13335;SDS011;6737;51.480;11.962;2022-11-21T09:30:33;32.57;;;15.67;;
13335;SDS011;6737;51.480;11.962;2022-11-21T09:32:59;24.33;;;13.00;;
13335;SDS011;6737;51.480;11.962;2022-11-21T09:35:26;24.77;;;13.60;;
13335;SDS011;6737;51.480;11.962;2022-11-21T09:37:52;26.10;;;13.87;;
13335;SDS011;6737;51.480;11.962;2022-11-21T09:40:18;25.50;;;13.50;;
13335;SDS011;6737;51.480;11.962;2022-11-21T09:43:06;26.67;;;13.20;;
13335;SDS011;6737;51.480;11.962;2022-11-21T09:45:49;25.67;;;13.17;;
13335;SDS011;6737;51.480;11.962;2022-11-21T09:48:23;24.30;;;12.97;;
13335;SDS011;6737;51.480;11.962;2022-11-21T09:50:54;26.43;;;12.57;;
13335;SDS011;6737;51.480;11.962;2022-11-21T09:56:13;23.17;;;11.60;;
13335;SDS011;6737;51.480;11.962;2022-11-21T09:58:44;24.07;;;12.07;;
13335;SDS011;6737;51.480;11.962;2022-11-21T10:01:15;24.93;;;12.97;;
13335;SDS011;6737;51.480;11.962;2022-11-21T10:03:43;24.83;;;12.27;;
13335;SDS011;6737;51.480;11.962;2022-11-21T10:06:16;24.17;;;12.30;;
13335;SDS011;6737;51.480;11.962;2022-11-21T10:25:42;23.03;;;11.43;;
13335;SDS011;6737;51.480;11.962;2022-11-21T10:31:27;23.47;;;11.30;;
13335;SDS011;6737;51.480;11.962;2022-11-21T10:33:55;17.77;;;10.60;;
13335;SDS011;6737;51.480;11.962;2022-11-21T10:36:25;20.10;;;10.80;;
13335;SDS011;6737;51.480;11.962;2022-11-21T10:38:57;21.10;;;11.07;;
13335;SDS011;6737;51.480;11.962;2022-11-21T10:47:24;19.60;;;10.50;;
13335;SDS011;6737;51.480;11.962;2022-11-21T10:52:34;17.40;;;9.73;;
13335;SDS011;6737;51.480;11.962;2022-11-21T10:55:08;16.53;;;9.43;;
13335;SDS011;6737;51.480;11.962;2022-11-21T11:02:37;19.77;;;9.63;;
13335;SDS011;6737;51.480;11.962;2022-11-21T11:05:28;19.00;;;9.87;;
13335;SDS011;6737;51.480;11.962;2022-11-21T11:10:32;16.20;;;9.00;;
13335;SDS011;6737;51.480;11.962;2022-11-21T11:13:15;14.47;;;8.50;;
13335;SDS011;6737;51.480;11.962;2022-11-21T11:18:55;14.83;;;7.93;;
13335;SDS011;6737;51.480;11.962;2022-11-21T11:23:53;14.93;;;8.37;;
13335;SDS011;6737;51.480;11.962;2022-11-21T11:29:13;13.97;;;7.67;;
13335;SDS011;6737;51.480;11.962;2022-11-21T11:31:49;12.93;;;7.60;;
13335;SDS011;6737;51.480;11.962;2022-11-21T11:34:21;12.97;;;7.40;;
13335;SDS011;6737;51.480;11.962;2022-11-21T11:47:57;13.30;;;7.70;;
13335;SDS011;6737;51.480;11.962;2022-11-21T11:50:35;13.90;;;7.63;;
13335;SDS011;6737;51.480;11.962;2022-11-21T11:53:12;13.70;;;8.03;;
13335;SDS011;6737;51.480;11.962;2022-11-21T11:58:20;11.63;;;7.50;;
13335;SDS011;6737;51.480;11.962;2022-11-21T12:14:35;14.33;;;8.07;;
13335;SDS011;6737;51.480;11.962;2022-11-21T12:17:41;16.37;;;8.93;;
13335;SDS011;6737;51.480;11.962;2022-11-21T12:20:26;18.50;;;8.77;;
13335;SDS011;6737;51.480;11.962;2022-11-21T12:22:59;19.33;;;9.47;;
13335;SDS011;6737;51.480;11.962;2022-11-21T12:25:28;16.50;;;9.67;;
13335;SDS011;6737;51.480;11.962;2022-11-21T12:27:58;19.50;;;10.03;;
13335;SDS011;6737;51.480;11.962;2022-11-21T12:39:31;20.57;;;10.87;;
13335;SDS011;6737;51.480;11.962;2022-11-21T12:45:31;18.87;;;10.87;;
13335;SDS011;6737;51.480;11.962;2022-11-21T13:06:13;26.20;;;13.73;;
13335;SDS011;6737;51.480;11.962;2022-11-21T13:08:45;26.00;;;13.77;;
13335;SDS011;6737;51.480;11.962;2022-11-21T13:14:28;28.17;;;13.43;;
13335;SDS011;6737;51.480;11.962;2022-11-21T13:17:20;26.27;;;13.90;;
13335;SDS011;6737;51.480;11.962;2022-11-21T13:22:55;31.93;;;14.10;;
13335;SDS011;6737;51.480;11.962;2022-11-21T13:30:54;33.17;;;16.27;;
13335;SDS011;6737;51.480;11.962;2022-11-21T13:36:00;45.17;;;18.87;;
13335;SDS011;6737;51.480;11.962;2022-11-21T13:38:31;37.97;;;18.40;;
13335;SDS011;6737;51.480;11.962;2022-11-21T13:46:58;46.13;;;20.43;;
13335;SDS011;6737;51.480;11.962;2022-11-21T14:01:22;39.87;;;17.83;;
13335;SDS011;6737;51.480;11.962;2022-11-21T14:07:30;36.47;;;17.03;;
13335;SDS011;6737;51.480;11.962;2022-11-21T14:09:58;38.20;;;16.97;;
13335;SDS011;6737;51.480;11.962;2022-11-21T14:12:44;40.37;;;17.37;;
13335;SDS011;6737;51.480;11.962;2022-11-21T14:15:20;40.83;;;17.87;;
13335;SDS011;6737;51.480;11.962;2022-11-21T14:17:52;37.37;;;17.93;;
13335;SDS011;6737;51.480;11.962;2022-11-21T14:22:52;46.20;;;19.03;;
13335;SDS011;6737;51.480;11.962;2022-11-21T14:28:23;47.13;;;20.83;;
13335;SDS011;6737;51.480;11.962;2022-11-21T14:30:58;53.53;;;19.50;;
13335;SDS011;6737;51.480;11.962;2022-11-21T14:33:29;50.70;;;20.77;;
13335;SDS011;6737;51.480;11.962;2022-11-21T14:36:25;52.37;;;21.67;;
13335;SDS011;6737;51.480;11.962;2022-11-21T14:38:57;51.23;;;20.20;;
13335;SDS011;6737;51.480;11.962;2022-11-21T14:46:22;40.17;;;17.80;;
13335;SDS011;6737;51.480;11.962;2022-11-21T14:48:53;39.77;;;18.03;;
13335;SDS011;6737;51.480;11.962;2022-11-21T14:51:24;37.20;;;17.27;;
13335;SDS011;6737;51.480;11.962;2022-11-21T14:53:52;36.37;;;15.27;;
13335;SDS011;6737;51.480;11.962;2022-11-21T14:56:25;33.37;;;15.57;;
13335;SDS011;6737;51.480;11.962;2022-11-21T14:58:54;35.23;;;16.53;;
13335;SDS011;6737;51.480;11.962;2022-11-21T15:01:26;35.27;;;15.90;;
13335;SDS011;6737;51.480;11.962;2022-11-21T15:04:03;34.40;;;15.47;;
13335;SDS011;6737;51.480;11.962;2022-11-21T15:06:38;33.33;;;15.07;;
13335;SDS011;6737;51.480;11.962;2022-11-21T15:09:10;30.53;;;14.60;;
13335;SDS011;6737;51.480;11.962;2022-11-21T15:11:39;33.80;;;15.47;;
13335;SDS011;6737;51.480;11.962;2022-11-21T15:14:18;31.73;;;15.03;;
13335;SDS011;6737;51.480;11.962;2022-11-21T15:16:49;34.83;;;16.10;;
13335;SDS011;6737;51.480;11.962;2022-11-21T15:19:28;31.27;;;15.43;;
13335;SDS011;6737;51.480;11.962;2022-11-21T15:21:57;37.87;;;17.07;;
13335;SDS011;6737;51.480;11.962;2022-11-21T15:24:29;33.97;;;16.20;;
13335;SDS011;6737;51.480;11.962;2022-11-21T15:27:22;36.60;;;15.63;;
13335;SDS011;6737;51.480;11.962;2022-11-21T15:35:28;38.47;;;17.60;;
13335;SDS011;6737;51.480;11.962;2022-11-21T15:38:23;36.50;;;17.13;;
13335;SDS011;6737;51.480;11.962;2022-11-21T15:43:44;40.90;;;17.47;;
13335;SDS011;6737;51.480;11.962;2022-11-21T15:48:56;38.90;;;17.10;;
13335;SDS011;6737;51.480;11.962;2022-11-21T15:53:59;36.63;;;17.13;;
13335;SDS011;6737;51.480;11.962;2022-11-21T15:56:26;41.33;;;17.87;;
13335;SDS011;6737;51.480;11.962;2022-11-21T15:58:52;40.00;;;18.30;;
13335;SDS011;6737;51.480;11.962;2022-11-21T16:01:18;43.53;;;18.70;;
13335;SDS011;6737;51.480;11.962;2022-11-21T16:03:48;41.57;;;17.63;;
13335;SDS011;6737;51.480;11.962;2022-11-21T16:06:20;39.30;;;17.00;;
13335;SDS011;6737;51.480;11.962;2022-11-21T16:08:46;36.80;;;16.07;;
13335;SDS011;6737;51.480;11.962;2022-11-21T16:13:48;40.03;;;17.60;;
13335;SDS011;6737;51.480;11.962;2022-11-21T16:16:19;36.63;;;16.00;;
13335;SDS011;6737;51.480;11.962;2022-11-21T16:18:46;37.73;;;16.77;;
13335;SDS011;6737;51.480;11.962;2022-11-21T16:21:12;39.20;;;17.27;;
13335;SDS011;6737;51.480;11.962;2022-11-21T16:23:38;40.43;;;17.53;;
13335;SDS011;6737;51.480;11.962;2022-11-21T16:26:05;36.13;;;16.93;;
13335;SDS011;6737;51.480;11.962;2022-11-21T16:28:32;38.07;;;16.97;;
13335;SDS011;6737;51.480;11.962;2022-11-21T16:30:58;46.93;;;19.30;;
13335;SDS011;6737;51.480;11.962;2022-11-21T16:33:26;44.13;;;18.30;;
13335;SDS011;6737;51.480;11.962;2022-11-21T16:35:53;36.67;;;16.67;;
13335;SDS011;6737;51.480;11.962;2022-11-21T16:38:24;37.10;;;17.80;;
13335;SDS011;6737;51.480;11.962;2022-11-21T16:41:13;40.30;;;17.33;;
13335;SDS011;6737;51.480;11.962;2022-11-21T16:43:44;38.57;;;17.37;;
13335;SDS011;6737;51.480;11.962;2022-11-21T16:46:12;41.37;;;17.27;;
13335;SDS011;6737;51.480;11.962;2022-11-21T16:48:37;41.67;;;18.30;;
13335;SDS011;6737;51.480;11.962;2022-11-21T16:53:45;46.00;;;18.63;;
13335;SDS011;6737;51.480;11.962;2022-11-21T16:56:13;45.37;;;17.90;;
13335;SDS011;6737;51.480;11.962;2022-11-21T16:58:39;40.73;;;18.20;;
13335;SDS011;6737;51.480;11.962;2022-11-21T17:01:07;40.53;;;17.03;;
13335;SDS011;6737;51.480;11.962;2022-11-21T17:03:38;42.50;;;18.03;;
13335;SDS011;6737;51.480;11.962;2022-11-21T17:06:05;39.57;;;18.30;;
13335;SDS011;6737;51.480;11.962;2022-11-21T17:08:32;45.13;;;19.40;;
13335;SDS011;6737;51.480;11.962;2022-11-21T17:11:09;42.87;;;17.83;;
13335;SDS011;6737;51.480;11.962;2022-11-21T17:13:43;44.67;;;19.43;;
13335;SDS011;6737;51.480;11.962;2022-11-21T17:16:12;41.83;;;17.80;;
13335;SDS011;6737;51.480;11.962;2022-11-21T17:18:39;43.90;;;18.53;;
13335;SDS011;6737;51.480;11.962;2022-11-21T17:21:08;44.33;;;18.27;;
13335;SDS011;6737;51.480;11.962;2022-11-21T17:23:37;40.57;;;18.20;;
13335;SDS011;6737;51.480;11.962;2022-11-21T17:26:05;44.67;;;18.77;;
13335;SDS011;6737;51.480;11.962;2022-11-21T17:28:32;40.70;;;18.50;;
13335;SDS011;6737;51.480;11.962;2022-11-21T17:30:59;39.80;;;17.50;;
13335;SDS011;6737;51.480;11.962;2022-11-21T17:33:30;38.60;;;18.13;;